sensor_id;sensor_type;location;lat;lon;timestamp;temperature;humidity
3790;DHT22;1910;49.042;9.028;2023-04-02T00:01:24;8.30;99.90
3790;DHT22;1910;49.042;9.028;2023-04-02T00:08:50;8.30;99.90
3790;DHT22;1910;49.042;9.028;2023-04-02T00:11:36;8.40;99.90
3790;DHT22;1910;49.042;9.028;2023-04-02T00:14:04;8.40;99.90
3790;DHT22;1910;49.042;9.028;2023-04-02T00:16:31;8.40;99.90
3790;DHT22;1910;49.042;9.028;2023-04-02T00:19:01;8.50;99.90
3790;DHT22;1910;49.042;9.028;2023-04-02T00:21:31;8.50;99.90
3790;DHT22;1910;49.042;9.028;2023-04-02T00:24:05;8.50;99.90
3790;DHT22;1910;49.042;9.028;2023-04-02T00:26:38;8.70;99.90
3790;DHT22;1910;49.042;9.028;2023-04-02T00:29:06;8.60;99.90
3790;DHT22;1910;49.042;9.028;2023-04-02T00:31:33;8.60;99.90
3790;DHT22;1910;49.042;9.028;2023-04-02T00:34:00;8.60;99.90
3790;DHT22;1910;49.042;9.028;2023-04-02T00:36:29;8.60;99.90
3790;DHT22;1910;49.042;9.028;2023-04-02T00:39:03;8.60;99.90
3790;DHT22;1910;49.042;9.028;2023-04-02T00:41:32;8.60;99.90
3790;DHT22;1910;49.042;9.028;2023-04-02T00:44:03;8.60;99.90
3790;DHT22;1910;49.042;9.028;2023-04-02T00:46:38;8.50;99.90
3790;DHT22;1910;49.042;9.028;2023-04-02T00:49:18;8.50;99.90
3790;DHT22;1910;49.042;9.028;2023-04-02T00:54:19;8.40;99.90
3790;DHT22;1910;49.042;9.028;2023-04-02T00:56:48;8.30;99.90
3790;DHT22;1910;49.042;9.028;2023-04-02T00:59:28;8.30;99.90
3790;DHT22;1910;49.042;9.028;2023-04-02T01:04:52;8.30;99.90
3790;DHT22;1910;49.042;9.028;2023-04-02T01:07:25;8.30;99.90
3790;DHT22;1910;49.042;9.028;2023-04-02T01:15:37;8.30;99.90
3790;DHT22;1910;49.042;9.028;2023-04-02T01:18:19;8.20;99.90
3790;DHT22;1910;49.042;9.028;2023-04-02T01:21:02;8.20;99.90
3790;DHT22;1910;49.042;9.028;2023-04-02T01:23:34;8.30;99.90
3790;DHT22;1910;49.042;9.028;2023-04-02T01:28:54;8.20;99.90
3790;DHT22;1910;49.042;9.028;2023-04-02T01:31:21;8.20;99.90
3790;DHT22;1910;49.042;9.028;2023-04-02T01:33:47;8.20;99.90
3790;DHT22;1910;49.042;9.028;2023-04-02T01:36:22;8.20;99.90
3790;DHT22;1910;49.042;9.028;2023-04-02T01:39:07;8.20;99.90
3790;DHT22;1910;49.042;9.028;2023-04-02T01:41:44;8.20;99.90
3790;DHT22;1910;49.042;9.028;2023-04-02T01:44:20;8.20;99.90
3790;DHT22;1910;49.042;9.028;2023-04-02T01:46:48;8.20;99.90
3790;DHT22;1910;49.042;9.028;2023-04-02T01:49:18;8.20;99.90
3790;DHT22;1910;49.042;9.028;2023-04-02T01:51:50;8.20;99.90
3790;DHT22;1910;49.042;9.028;2023-04-02T01:54:18;8.30;99.90
3790;DHT22;1910;49.042;9.028;2023-04-02T01:56:44;8.30;99.90
3790;DHT22;1910;49.042;9.028;2023-04-02T01:59:11;8.30;99.90
3790;DHT22;1910;49.042;9.028;2023-04-02T02:01:44;8.20;99.90
3790;DHT22;1910;49.042;9.028;2023-04-02T02:04:14;8.20;99.90
3790;DHT22;1910;49.042;9.028;2023-04-02T02:06:41;8.20;99.90
3790;DHT22;1910;49.042;9.028;2023-04-02T02:09:07;8.10;99.90
3790;DHT22;1910;49.042;9.028;2023-04-02T02:11:37;8.10;99.90
3790;DHT22;1910;49.042;9.028;2023-04-02T02:14:24;8.20;99.90
3790;DHT22;1910;49.042;9.028;2023-04-02T02:16:53;8.10;99.90
3790;DHT22;1910;49.042;9.028;2023-04-02T02:19:28;8.10;99.90
3790;DHT22;1910;49.042;9.028;2023-04-02T02:22:05;8.10;99.90
3790;DHT22;1910;49.042;9.028;2023-04-02T02:24:32;8.10;99.90
3790;DHT22;1910;49.042;9.028;2023-04-02T02:29:54;8.20;99.90
3790;DHT22;1910;49.042;9.028;2023-04-02T02:32:24;8.10;99.90
3790;DHT22;1910;49.042;9.028;2023-04-02T02:35:03;8.20;99.90
3790;DHT22;1910;49.042;9.028;2023-04-02T02:37:36;8.10;99.90
3790;DHT22;1910;49.042;9.028;2023-04-02T02:40:07;8.20;99.90
3790;DHT22;1910;49.042;9.028;2023-04-02T02:42:39;8.10;99.90
3790;DHT22;1910;49.042;9.028;2023-04-02T02:45:12;8.10;99.90
3790;DHT22;1910;49.042;9.028;2023-04-02T02:47:41;8.20;99.90
3790;DHT22;1910;49.042;9.028;2023-04-02T02:50:24;8.10;99.90
3790;DHT22;1910;49.042;9.028;2023-04-02T02:52:53;8.20;99.90
3790;DHT22;1910;49.042;9.028;2023-04-02T02:55:28;8.20;99.90
3790;DHT22;1910;49.042;9.028;2023-04-02T02:58:06;8.20;99.90
3790;DHT22;1910;49.042;9.028;2023-04-02T03:00:35;8.30;99.90
3790;DHT22;1910;49.042;9.028;2023-04-02T03:03:06;8.20;99.90
3790;DHT22;1910;49.042;9.028;2023-04-02T03:05:33;8.20;99.90
3790;DHT22;1910;49.042;9.028;2023-04-02T03:08:01;8.10;99.90
3790;DHT22;1910;49.042;9.028;2023-04-02T03:13:32;8.10;99.90
3790;DHT22;1910;49.042;9.028;2023-04-02T03:16:10;8.10;99.90
3790;DHT22;1910;49.042;9.028;2023-04-02T03:19:14;8.00;99.90
3790;DHT22;1910;49.042;9.028;2023-04-02T03:21:51;8.10;99.90
3790;DHT22;1910;49.042;9.028;2023-04-02T03:27:16;8.00;99.90
3790;DHT22;1910;49.042;9.028;2023-04-02T03:30:13;8.00;99.90
3790;DHT22;1910;49.042;9.028;2023-04-02T03:32:37;8.00;99.90
3790;DHT22;1910;49.042;9.028;2023-04-02T03:35:25;8.10;99.90
3790;DHT22;1910;49.042;9.028;2023-04-02T03:37:59;8.00;99.90
3790;DHT22;1910;49.042;9.028;2023-04-02T03:40:41;8.10;99.90
3790;DHT22;1910;49.042;9.028;2023-04-02T03:43:23;8.10;99.90
3790;DHT22;1910;49.042;9.028;2023-04-02T03:46:10;8.00;99.90
3790;DHT22;1910;49.042;9.028;2023-04-02T03:48:40;8.00;99.90
3790;DHT22;1910;49.042;9.028;2023-04-02T03:51:22;8.00;99.90
3790;DHT22;1910;49.042;9.028;2023-04-02T03:53:48;8.10;99.90
3790;DHT22;1910;49.042;9.028;2023-04-02T03:59:06;8.10;99.90
3790;DHT22;1910;49.042;9.028;2023-04-02T04:01:41;8.20;99.90
3790;DHT22;1910;49.042;9.028;2023-04-02T04:04:13;8.20;99.90
3790;DHT22;1910;49.042;9.028;2023-04-02T04:06:42;8.20;99.90
3790;DHT22;1910;49.042;9.028;2023-04-02T04:09:32;8.20;99.90
3790;DHT22;1910;49.042;9.028;2023-04-02T04:12:25;8.20;99.90
3790;DHT22;1910;49.042;9.028;2023-04-02T04:14:58;8.20;99.90
3790;DHT22;1910;49.042;9.028;2023-04-02T04:22:39;8.10;99.90
3790;DHT22;1910;49.042;9.028;2023-04-02T04:25:16;8.10;99.90
3790;DHT22;1910;49.042;9.028;2023-04-02T04:30:44;8.00;99.90
3790;DHT22;1910;49.042;9.028;2023-04-02T04:33:18;7.90;99.90
3790;DHT22;1910;49.042;9.028;2023-04-02T04:35:56;8.00;99.90
3790;DHT22;1910;49.042;9.028;2023-04-02T04:38:31;8.00;99.90
3790;DHT22;1910;49.042;9.028;2023-04-02T04:41:13;8.00;99.90
3790;DHT22;1910;49.042;9.028;2023-04-02T04:43:50;8.00;99.90
3790;DHT22;1910;49.042;9.028;2023-04-02T04:46:40;8.00;99.90
3790;DHT22;1910;49.042;9.028;2023-04-02T04:49:24;8.00;99.90
3790;DHT22;1910;49.042;9.028;2023-04-02T04:51:57;8.00;99.90
3790;DHT22;1910;49.042;9.028;2023-04-02T04:54:26;8.00;99.90
3790;DHT22;1910;49.042;9.028;2023-04-02T04:56:56;8.00;99.90
3790;DHT22;1910;49.042;9.028;2023-04-02T04:59:39;8.00;99.90
3790;DHT22;1910;49.042;9.028;2023-04-02T05:02:11;8.10;99.90
3790;DHT22;1910;49.042;9.028;2023-04-02T05:04:42;8.10;99.90
3790;DHT22;1910;49.042;9.028;2023-04-02T05:07:31;8.10;99.90
3790;DHT22;1910;49.042;9.028;2023-04-02T05:10:11;8.10;99.90
3790;DHT22;1910;49.042;9.028;2023-04-02T05:13:00;8.10;99.90
3790;DHT22;1910;49.042;9.028;2023-04-02T05:26:44;8.00;99.90
3790;DHT22;1910;49.042;9.028;2023-04-02T05:29:13;8.10;99.90
3790;DHT22;1910;49.042;9.028;2023-04-02T05:31:48;8.10;99.90
3790;DHT22;1910;49.042;9.028;2023-04-02T05:34:24;8.10;99.90
3790;DHT22;1910;49.042;9.028;2023-04-02T05:36:51;8.20;99.90
3790;DHT22;1910;49.042;9.028;2023-04-02T05:39:23;8.20;99.90
3790;DHT22;1910;49.042;9.028;2023-04-02T05:42:03;8.30;99.90
3790;DHT22;1910;49.042;9.028;2023-04-02T05:44:32;8.30;99.90
3790;DHT22;1910;49.042;9.028;2023-04-02T05:47:03;8.40;99.90
3790;DHT22;1910;49.042;9.028;2023-04-02T05:49:38;8.20;99.90
3790;DHT22;1910;49.042;9.028;2023-04-02T05:52:12;8.30;99.90
3790;DHT22;1910;49.042;9.028;2023-04-02T05:54:54;8.40;99.90
3790;DHT22;1910;49.042;9.028;2023-04-02T05:57:32;8.30;99.90
3790;DHT22;1910;49.042;9.028;2023-04-02T06:00:04;8.20;99.90
3790;DHT22;1910;49.042;9.028;2023-04-02T06:02:46;8.30;99.90
3790;DHT22;1910;49.042;9.028;2023-04-02T06:05:24;8.40;99.90
3790;DHT22;1910;49.042;9.028;2023-04-02T06:08:07;8.20;99.90
3790;DHT22;1910;49.042;9.028;2023-04-02T06:10:43;8.20;99.90
3790;DHT22;1910;49.042;9.028;2023-04-02T06:13:16;8.20;99.90
3790;DHT22;1910;49.042;9.028;2023-04-02T06:15:42;8.20;99.90
3790;DHT22;1910;49.042;9.028;2023-04-02T06:20:38;8.40;99.90
3790;DHT22;1910;49.042;9.028;2023-04-02T06:23:15;8.50;99.90
3790;DHT22;1910;49.042;9.028;2023-04-02T06:25:43;8.50;99.90
3790;DHT22;1910;49.042;9.028;2023-04-02T06:28:17;8.60;99.90
3790;DHT22;1910;49.042;9.028;2023-04-02T06:30:45;8.60;99.90
3790;DHT22;1910;49.042;9.028;2023-04-02T06:33:12;8.60;99.90
3790;DHT22;1910;49.042;9.028;2023-04-02T06:35:40;8.60;99.90
3790;DHT22;1910;49.042;9.028;2023-04-02T06:38:16;8.60;99.90
3790;DHT22;1910;49.042;9.028;2023-04-02T06:45:52;10.00;99.90
3790;DHT22;1910;49.042;9.028;2023-04-02T06:48:19;8.70;99.90
3790;DHT22;1910;49.042;9.028;2023-04-02T06:50:59;8.80;99.90
3790;DHT22;1910;49.042;9.028;2023-04-02T06:53:38;8.90;99.90
3790;DHT22;1910;49.042;9.028;2023-04-02T06:58:47;9.00;99.90
3790;DHT22;1910;49.042;9.028;2023-04-02T07:01:27;9.00;99.90
3790;DHT22;1910;49.042;9.028;2023-04-02T07:03:55;8.90;99.90
3790;DHT22;1910;49.042;9.028;2023-04-02T07:06:21;8.90;99.90
3790;DHT22;1910;49.042;9.028;2023-04-02T07:08:47;9.00;99.90
3790;DHT22;1910;49.042;9.028;2023-04-02T07:11:17;9.00;99.90
3790;DHT22;1910;49.042;9.028;2023-04-02T07:13:44;8.80;99.90
3790;DHT22;1910;49.042;9.028;2023-04-02T07:16:30;8.70;99.90
3790;DHT22;1910;49.042;9.028;2023-04-02T07:18:57;10.20;99.90
3790;DHT22;1910;49.042;9.028;2023-04-02T07:21:27;8.80;99.90
3790;DHT22;1910;49.042;9.028;2023-04-02T07:23:53;8.70;99.90
3790;DHT22;1910;49.042;9.028;2023-04-02T07:26:22;8.60;99.90
3790;DHT22;1910;49.042;9.028;2023-04-02T07:28:49;8.70;99.90
3790;DHT22;1910;49.042;9.028;2023-04-02T07:31:18;8.90;99.90
3790;DHT22;1910;49.042;9.028;2023-04-02T07:33:44;9.00;99.90
3790;DHT22;1910;49.042;9.028;2023-04-02T07:36:19;9.10;99.90
3790;DHT22;1910;49.042;9.028;2023-04-02T07:38:45;9.10;99.90
3790;DHT22;1910;49.042;9.028;2023-04-02T07:43:38;9.60;99.90
3790;DHT22;1910;49.042;9.028;2023-04-02T07:46:04;9.70;99.90
3790;DHT22;1910;49.042;9.028;2023-04-02T07:53:32;9.70;99.90
3790;DHT22;1910;49.042;9.028;2023-04-02T07:56:00;9.70;99.90
3790;DHT22;1910;49.042;9.028;2023-04-02T07:58:27;9.60;99.90
3790;DHT22;1910;49.042;9.028;2023-04-02T08:00:53;9.70;99.90
3790;DHT22;1910;49.042;9.028;2023-04-02T08:03:18;9.60;99.90
3790;DHT22;1910;49.042;9.028;2023-04-02T08:05:52;9.60;99.90
3790;DHT22;1910;49.042;9.028;2023-04-02T08:08:19;9.50;99.90
3790;DHT22;1910;49.042;9.028;2023-04-02T08:10:44;9.60;99.90
3790;DHT22;1910;49.042;9.028;2023-04-02T08:30:15;10.00;99.90
3790;DHT22;1910;49.042;9.028;2023-04-02T08:35:08;10.30;99.90
3790;DHT22;1910;49.042;9.028;2023-04-02T08:37:35;10.50;99.90
3790;DHT22;1910;49.042;9.028;2023-04-02T08:42:38;10.80;99.90
3790;DHT22;1910;49.042;9.028;2023-04-02T08:47:49;10.70;99.90
3790;DHT22;1910;49.042;9.028;2023-04-02T08:50:38;11.00;99.90
3790;DHT22;1910;49.042;9.028;2023-04-02T08:53:11;11.00;99.90
3790;DHT22;1910;49.042;9.028;2023-04-02T08:55:45;11.50;99.90
3790;DHT22;1910;49.042;9.028;2023-04-02T08:58:41;12.70;99.90
3790;DHT22;1910;49.042;9.028;2023-04-02T09:01:24;12.20;99.90
3790;DHT22;1910;49.042;9.028;2023-04-02T09:03:54;12.40;99.90
3790;DHT22;1910;49.042;9.028;2023-04-02T09:08:50;11.90;99.90
3790;DHT22;1910;49.042;9.028;2023-04-02T09:13:59;11.50;99.90
3790;DHT22;1910;49.042;9.028;2023-04-02T09:16:54;11.70;99.90
3790;DHT22;1910;49.042;9.028;2023-04-02T09:19:30;11.70;99.90
3790;DHT22;1910;49.042;9.028;2023-04-02T09:22:33;12.00;99.90
3790;DHT22;1910;49.042;9.028;2023-04-02T09:25:03;12.20;99.90
3790;DHT22;1910;49.042;9.028;2023-04-02T09:27:34;12.20;99.90
3790;DHT22;1910;49.042;9.028;2023-04-02T09:33:04;11.70;99.90
3790;DHT22;1910;49.042;9.028;2023-04-02T09:35:53;11.60;99.90
3790;DHT22;1910;49.042;9.028;2023-04-02T09:38:24;11.50;99.90
3790;DHT22;1910;49.042;9.028;2023-04-02T09:41:04;11.50;99.90
3790;DHT22;1910;49.042;9.028;2023-04-02T09:43:32;11.10;99.90
3790;DHT22;1910;49.042;9.028;2023-04-02T09:46:17;10.80;99.90
3790;DHT22;1910;49.042;9.028;2023-04-02T09:48:52;11.10;99.90
3790;DHT22;1910;49.042;9.028;2023-04-02T09:51:24;11.40;99.90
3790;DHT22;1910;49.042;9.028;2023-04-02T09:56:29;11.90;99.90
3790;DHT22;1910;49.042;9.028;2023-04-02T10:01:46;11.90;99.90
3790;DHT22;1910;49.042;9.028;2023-04-02T10:07:01;11.70;99.90
3790;DHT22;1910;49.042;9.028;2023-04-02T10:09:30;12.10;99.90
3790;DHT22;1910;49.042;9.028;2023-04-02T10:11:58;12.20;99.90
3790;DHT22;1910;49.042;9.028;2023-04-02T10:14:31;12.30;99.90
3790;DHT22;1910;49.042;9.028;2023-04-02T10:17:16;12.30;99.90
3790;DHT22;1910;49.042;9.028;2023-04-02T10:19:49;12.60;99.90
3790;DHT22;1910;49.042;9.028;2023-04-02T10:22:18;13.20;99.90
3790;DHT22;1910;49.042;9.028;2023-04-02T10:27:26;13.70;99.90
3790;DHT22;1910;49.042;9.028;2023-04-02T10:32:45;13.70;99.90
3790;DHT22;1910;49.042;9.028;2023-04-02T10:35:23;13.10;99.90
3790;DHT22;1910;49.042;9.028;2023-04-02T10:44:10;12.30;99.90
3790;DHT22;1910;49.042;9.028;2023-04-02T10:47:02;12.30;99.90
3790;DHT22;1910;49.042;9.028;2023-04-02T10:49:49;12.20;99.90
3790;DHT22;1910;49.042;9.028;2023-04-02T10:55:17;11.80;99.90
3790;DHT22;1910;49.042;9.028;2023-04-02T10:57:46;11.80;99.90
3790;DHT22;1910;49.042;9.028;2023-04-02T11:02:52;11.90;99.90
3790;DHT22;1910;49.042;9.028;2023-04-02T11:08:09;12.20;99.90
3790;DHT22;1910;49.042;9.028;2023-04-02T11:10:44;13.00;99.90
3790;DHT22;1910;49.042;9.028;2023-04-02T11:13:27;13.00;99.90
3790;DHT22;1910;49.042;9.028;2023-04-02T11:18:27;13.90;99.90
3790;DHT22;1910;49.042;9.028;2023-04-02T11:23:20;14.50;99.90
3790;DHT22;1910;49.042;9.028;2023-04-02T11:25:46;14.90;99.90
3790;DHT22;1910;49.042;9.028;2023-04-02T11:28:27;14.20;99.90
3790;DHT22;1910;49.042;9.028;2023-04-02T11:30:53;14.90;99.90
3790;DHT22;1910;49.042;9.028;2023-04-02T11:36:00;14.90;99.90
3790;DHT22;1910;49.042;9.028;2023-04-02T11:40:53;15.70;99.90
3790;DHT22;1910;49.042;9.028;2023-04-02T11:54:03;17.60;99.90
3790;DHT22;1910;49.042;9.028;2023-04-02T12:02:24;16.80;99.90
3790;DHT22;1910;49.042;9.028;2023-04-02T12:08:07;16.80;99.90
3790;DHT22;1910;49.042;9.028;2023-04-02T12:10:55;16.80;99.90
3790;DHT22;1910;49.042;9.028;2023-04-02T12:16:09;14.70;99.90
3790;DHT22;1910;49.042;9.028;2023-04-02T12:18:50;13.30;99.90
3790;DHT22;1910;49.042;9.028;2023-04-02T12:21:23;12.10;99.90
3790;DHT22;1910;49.042;9.028;2023-04-02T12:23:52;11.90;99.90
3790;DHT22;1910;49.042;9.028;2023-04-02T12:26:36;11.60;99.90
3790;DHT22;1910;49.042;9.028;2023-04-02T12:29:23;11.20;99.90
3790;DHT22;1910;49.042;9.028;2023-04-02T12:31:49;10.80;99.90
3790;DHT22;1910;49.042;9.028;2023-04-02T12:34:18;10.70;99.90
3790;DHT22;1910;49.042;9.028;2023-04-02T12:39:20;10.20;99.90
3790;DHT22;1910;49.042;9.028;2023-04-02T12:41:46;10.10;99.90
3790;DHT22;1910;49.042;9.028;2023-04-02T12:44:20;9.90;99.90
3790;DHT22;1910;49.042;9.028;2023-04-02T12:46:47;9.80;99.90
3790;DHT22;1910;49.042;9.028;2023-04-02T12:51:56;9.60;99.90
3790;DHT22;1910;49.042;9.028;2023-04-02T12:54:22;9.70;99.90
3790;DHT22;1910;49.042;9.028;2023-04-02T12:56:49;9.60;99.90
3790;DHT22;1910;49.042;9.028;2023-04-02T12:59:33;9.60;99.90
3790;DHT22;1910;49.042;9.028;2023-04-02T13:02:02;9.50;99.90
3790;DHT22;1910;49.042;9.028;2023-04-02T13:04:28;9.60;99.90
3790;DHT22;1910;49.042;9.028;2023-04-02T13:14:23;9.40;99.90
3790;DHT22;1910;49.042;9.028;2023-04-02T13:16:49;9.30;99.90
3790;DHT22;1910;49.042;9.028;2023-04-02T13:21:44;9.30;99.90
3790;DHT22;1910;49.042;9.028;2023-04-02T13:24:18;9.20;99.90
3790;DHT22;1910;49.042;9.028;2023-04-02T13:26:44;9.20;99.90
3790;DHT22;1910;49.042;9.028;2023-04-02T13:31:44;9.20;99.90
3790;DHT22;1910;49.042;9.028;2023-04-02T13:34:10;9.20;99.90
3790;DHT22;1910;49.042;9.028;2023-04-02T13:36:36;9.20;99.90
3790;DHT22;1910;49.042;9.028;2023-04-02T13:39:02;9.20;99.90
3790;DHT22;1910;49.042;9.028;2023-04-02T13:41:30;9.20;99.90
3790;DHT22;1910;49.042;9.028;2023-04-02T13:43:58;9.10;99.90
3790;DHT22;1910;49.042;9.028;2023-04-02T13:46:30;9.10;99.90
3790;DHT22;1910;49.042;9.028;2023-04-02T13:48:56;9.10;99.90
3790;DHT22;1910;49.042;9.028;2023-04-02T13:51:26;9.10;99.90
3790;DHT22;1910;49.042;9.028;2023-04-02T13:53:56;9.00;99.90
3790;DHT22;1910;49.042;9.028;2023-04-02T13:56:22;9.10;99.90
3790;DHT22;1910;49.042;9.028;2023-04-02T13:58:49;9.10;99.90
3790;DHT22;1910;49.042;9.028;2023-04-02T14:01:16;9.10;99.90
3790;DHT22;1910;49.042;9.028;2023-04-02T14:06:20;9.30;99.90
3790;DHT22;1910;49.042;9.028;2023-04-02T14:09:01;9.20;99.90
3790;DHT22;1910;49.042;9.028;2023-04-02T14:11:35;9.20;99.90
3790;DHT22;1910;49.042;9.028;2023-04-02T14:14:07;9.20;99.90
3790;DHT22;1910;49.042;9.028;2023-04-02T14:16:47;9.20;99.90
3790;DHT22;1910;49.042;9.028;2023-04-02T14:25:53;8.90;99.90
3790;DHT22;1910;49.042;9.028;2023-04-02T14:33:37;8.90;99.90
3790;DHT22;1910;49.042;9.028;2023-04-02T14:36:44;8.90;99.90
3790;DHT22;1910;49.042;9.028;2023-04-02T14:45:08;8.80;99.90
3790;DHT22;1910;49.042;9.028;2023-04-02T14:47:45;8.90;99.90
3790;DHT22;1910;49.042;9.028;2023-04-02T14:50:26;8.70;99.90
3790;DHT22;1910;49.042;9.028;2023-04-02T14:52:58;8.70;99.90
3790;DHT22;1910;49.042;9.028;2023-04-02T14:55:36;8.80;99.90
3790;DHT22;1910;49.042;9.028;2023-04-02T14:58:06;8.80;99.90
3790;DHT22;1910;49.042;9.028;2023-04-02T15:00:37;8.90;99.90
3790;DHT22;1910;49.042;9.028;2023-04-02T15:03:24;9.10;99.90
3790;DHT22;1910;49.042;9.028;2023-04-02T15:05:58;9.20;99.90
3790;DHT22;1910;49.042;9.028;2023-04-02T15:14:12;9.20;99.90
3790;DHT22;1910;49.042;9.028;2023-04-02T15:16:39;9.20;99.90
3790;DHT22;1910;49.042;9.028;2023-04-02T15:19:11;9.30;99.90
3790;DHT22;1910;49.042;9.028;2023-04-02T15:24:45;9.00;99.90
3790;DHT22;1910;49.042;9.028;2023-04-02T15:30:17;8.80;99.90
3790;DHT22;1910;49.042;9.028;2023-04-02T15:32:45;8.60;99.90
3790;DHT22;1910;49.042;9.028;2023-04-02T15:38:16;8.60;99.90
3790;DHT22;1910;49.042;9.028;2023-04-02T15:41:11;8.50;99.90
3790;DHT22;1910;49.042;9.028;2023-04-02T15:43:43;8.40;99.90
3790;DHT22;1910;49.042;9.028;2023-04-02T15:49:41;8.40;99.90
3790;DHT22;1910;49.042;9.028;2023-04-02T15:52:43;8.40;99.90
3790;DHT22;1910;49.042;9.028;2023-04-02T16:00:29;8.40;99.90
3790;DHT22;1910;49.042;9.028;2023-04-02T16:03:26;8.40;99.90
3790;DHT22;1910;49.042;9.028;2023-04-02T16:06:10;8.20;99.90
3790;DHT22;1910;49.042;9.028;2023-04-02T16:11:30;8.20;99.90
3790;DHT22;1910;49.042;9.028;2023-04-02T16:14:03;8.10;99.90
3790;DHT22;1910;49.042;9.028;2023-04-02T16:16:35;8.10;99.90
3790;DHT22;1910;49.042;9.028;2023-04-02T16:24:26;8.10;99.90
3790;DHT22;1910;49.042;9.028;2023-04-02T16:27:19;8.00;99.90
3790;DHT22;1910;49.042;9.028;2023-04-02T16:29:57;7.90;99.90
3790;DHT22;1910;49.042;9.028;2023-04-02T16:32:51;7.80;99.90
3790;DHT22;1910;49.042;9.028;2023-04-02T16:44:32;7.60;99.90
3790;DHT22;1910;49.042;9.028;2023-04-02T16:50:01;7.60;99.90
3790;DHT22;1910;49.042;9.028;2023-04-02T16:52:55;7.60;99.90
3790;DHT22;1910;49.042;9.028;2023-04-02T17:00:50;7.70;99.90
3790;DHT22;1910;49.042;9.028;2023-04-02T17:03:20;7.70;99.90
3790;DHT22;1910;49.042;9.028;2023-04-02T17:06:03;7.80;99.90
3790;DHT22;1910;49.042;9.028;2023-04-02T17:08:38;7.80;99.90
3790;DHT22;1910;49.042;9.028;2023-04-02T17:11:08;7.50;99.90
3790;DHT22;1910;49.042;9.028;2023-04-02T17:13:46;7.60;99.90
3790;DHT22;1910;49.042;9.028;2023-04-02T17:16:43;7.60;99.90
3790;DHT22;1910;49.042;9.028;2023-04-02T17:19:14;7.50;99.90
3790;DHT22;1910;49.042;9.028;2023-04-02T17:21:44;7.50;99.90
3790;DHT22;1910;49.042;9.028;2023-04-02T17:24:30;7.50;99.90
3790;DHT22;1910;49.042;9.028;2023-04-02T17:27:22;7.30;99.90
3790;DHT22;1910;49.042;9.028;2023-04-02T17:29:52;7.00;99.90
3790;DHT22;1910;49.042;9.028;2023-04-02T17:32:26;6.90;99.90
3790;DHT22;1910;49.042;9.028;2023-04-02T17:34:51;7.00;99.90
3790;DHT22;1910;49.042;9.028;2023-04-02T17:39:53;6.70;99.90
3790;DHT22;1910;49.042;9.028;2023-04-02T17:42:44;6.60;99.90
3790;DHT22;1910;49.042;9.028;2023-04-02T17:45:50;6.50;99.90
3790;DHT22;1910;49.042;9.028;2023-04-02T17:51:33;6.40;99.90
3790;DHT22;1910;49.042;9.028;2023-04-02T17:54:19;6.40;99.90
3790;DHT22;1910;49.042;9.028;2023-04-02T18:02:10;6.10;99.90
3790;DHT22;1910;49.042;9.028;2023-04-02T18:04:59;6.00;99.90
3790;DHT22;1910;49.042;9.028;2023-04-02T18:07:37;5.90;99.90
3790;DHT22;1910;49.042;9.028;2023-04-02T18:10:23;5.90;99.90
3790;DHT22;1910;49.042;9.028;2023-04-02T18:21:35;6.00;99.90
3790;DHT22;1910;49.042;9.028;2023-04-02T18:27:14;5.60;99.90
3790;DHT22;1910;49.042;9.028;2023-04-02T18:38:42;5.40;99.90
3790;DHT22;1910;49.042;9.028;2023-04-02T18:41:21;5.30;99.90
3790;DHT22;1910;49.042;9.028;2023-04-02T18:46:53;5.30;99.90
3790;DHT22;1910;49.042;9.028;2023-04-02T18:49:31;5.40;99.90
3790;DHT22;1910;49.042;9.028;2023-04-02T18:52:08;5.30;99.90
3790;DHT22;1910;49.042;9.028;2023-04-02T18:55:03;5.30;99.90
3790;DHT22;1910;49.042;9.028;2023-04-02T18:57:31;5.20;99.90
3790;DHT22;1910;49.042;9.028;2023-04-02T19:05:43;5.00;99.90
3790;DHT22;1910;49.042;9.028;2023-04-02T19:08:18;5.00;99.90
3790;DHT22;1910;49.042;9.028;2023-04-02T19:10:50;4.90;99.90
3790;DHT22;1910;49.042;9.028;2023-04-02T19:13:18;4.90;99.90
3790;DHT22;1910;49.042;9.028;2023-04-02T19:21:25;4.70;99.90
3790;DHT22;1910;49.042;9.028;2023-04-02T19:24:01;4.70;99.90
3790;DHT22;1910;49.042;9.028;2023-04-02T19:26:39;4.60;99.90
3790;DHT22;1910;49.042;9.028;2023-04-02T19:32:02;4.60;99.90
3790;DHT22;1910;49.042;9.028;2023-04-02T19:34:44;4.50;99.90
3790;DHT22;1910;49.042;9.028;2023-04-02T19:44:49;5.60;99.90
3790;DHT22;1910;49.042;9.028;2023-04-02T19:47:16;4.70;99.90
3790;DHT22;1910;49.042;9.028;2023-04-02T19:49:41;4.70;99.90
3790;DHT22;1910;49.042;9.028;2023-04-02T19:52:07;4.60;99.90
3790;DHT22;1910;49.042;9.028;2023-04-02T19:54:33;4.70;99.90
3790;DHT22;1910;49.042;9.028;2023-04-02T19:56:58;4.60;99.90
3790;DHT22;1910;49.042;9.028;2023-04-02T19:59:24;4.70;99.90
3790;DHT22;1910;49.042;9.028;2023-04-02T20:01:50;4.50;99.90
3790;DHT22;1910;49.042;9.028;2023-04-02T20:04:16;4.60;99.90
3790;DHT22;1910;49.042;9.028;2023-04-02T20:06:41;4.50;99.90
3790;DHT22;1910;49.042;9.028;2023-04-02T20:09:07;4.50;99.90
3790;DHT22;1910;49.042;9.028;2023-04-02T20:11:34;4.50;99.90
3790;DHT22;1910;49.042;9.028;2023-04-02T20:14:00;4.50;99.90
3790;DHT22;1910;49.042;9.028;2023-04-02T20:16:26;4.80;99.90
3790;DHT22;1910;49.042;9.028;2023-04-02T20:18:51;4.60;99.90
3790;DHT22;1910;49.042;9.028;2023-04-02T20:21:17;4.60;99.90
3790;DHT22;1910;49.042;9.028;2023-04-02T20:23:43;4.60;99.90
3790;DHT22;1910;49.042;9.028;2023-04-02T20:26:09;4.50;99.90
3790;DHT22;1910;49.042;9.028;2023-04-02T20:28:36;4.50;99.90
3790;DHT22;1910;49.042;9.028;2023-04-02T20:31:12;4.60;99.90
3790;DHT22;1910;49.042;9.028;2023-04-02T20:33:39;4.60;99.90
3790;DHT22;1910;49.042;9.028;2023-04-02T20:36:07;4.70;99.90
3790;DHT22;1910;49.042;9.028;2023-04-02T20:38:33;4.70;99.90
3790;DHT22;1910;49.042;9.028;2023-04-02T20:41:00;4.60;99.90
3790;DHT22;1910;49.042;9.028;2023-04-02T20:43:26;4.60;99.90
3790;DHT22;1910;49.042;9.028;2023-04-02T20:45:57;4.50;99.90
3790;DHT22;1910;49.042;9.028;2023-04-02T20:48:24;4.40;99.90
3790;DHT22;1910;49.042;9.028;2023-04-02T20:50:52;4.50;99.90
3790;DHT22;1910;49.042;9.028;2023-04-02T20:53:17;4.50;99.90
3790;DHT22;1910;49.042;9.028;2023-04-02T20:55:43;4.50;99.90
3790;DHT22;1910;49.042;9.028;2023-04-02T20:58:11;4.50;99.90
3790;DHT22;1910;49.042;9.028;2023-04-02T21:00:37;4.50;99.90
3790;DHT22;1910;49.042;9.028;2023-04-02T21:03:03;6.80;99.90
3790;DHT22;1910;49.042;9.028;2023-04-02T21:05:28;4.30;99.90
3790;DHT22;1910;49.042;9.028;2023-04-02T21:07:54;4.30;99.90
3790;DHT22;1910;49.042;9.028;2023-04-02T21:10:19;4.30;99.90
3790;DHT22;1910;49.042;9.028;2023-04-02T21:12:45;4.30;99.90
3790;DHT22;1910;49.042;9.028;2023-04-02T21:15:11;4.30;99.90
3790;DHT22;1910;49.042;9.028;2023-04-02T21:17:37;4.40;99.90
3790;DHT22;1910;49.042;9.028;2023-04-02T21:20:03;4.40;99.90
3790;DHT22;1910;49.042;9.028;2023-04-02T21:22:29;4.30;99.90
3790;DHT22;1910;49.042;9.028;2023-04-02T21:24:55;4.30;99.90
3790;DHT22;1910;49.042;9.028;2023-04-02T21:27:20;4.30;99.90
3790;DHT22;1910;49.042;9.028;2023-04-02T21:29:50;4.90;99.90
3790;DHT22;1910;49.042;9.028;2023-04-02T21:32:16;4.40;99.90
3790;DHT22;1910;49.042;9.028;2023-04-02T21:34:41;4.20;99.90
3790;DHT22;1910;49.042;9.028;2023-04-02T21:39:33;4.30;99.90
3790;DHT22;1910;49.042;9.028;2023-04-02T21:41:58;4.30;99.90
3790;DHT22;1910;49.042;9.028;2023-04-02T21:44:24;4.40;99.90
3790;DHT22;1910;49.042;9.028;2023-04-02T21:46:50;4.40;99.90
3790;DHT22;1910;49.042;9.028;2023-04-02T21:49:17;4.30;99.90
3790;DHT22;1910;49.042;9.028;2023-04-02T21:51:45;4.60;99.90
3790;DHT22;1910;49.042;9.028;2023-04-02T21:54:11;4.40;99.90
3790;DHT22;1910;49.042;9.028;2023-04-02T21:56:40;4.40;99.90
3790;DHT22;1910;49.042;9.028;2023-04-02T21:59:07;4.30;99.90